createdAt,value
2022-08-20T00:02:15.621Z,20.00
2022-08-20T00:04:44.736Z,18.20
2022-08-20T00:07:14.595Z,19.40
2022-08-20T00:09:43.749Z,22.80
2022-08-20T00:12:16.750Z,18.10
2022-08-20T00:14:44.958Z,17.20
2022-08-20T00:17:13.362Z,18.50
2022-08-20T00:19:41.796Z,19.10
2022-08-20T00:22:10.288Z,22.30
2022-08-20T00:24:38.769Z,16.50
2022-08-20T00:27:07.240Z,22.10
2022-08-20T00:29:35.781Z,20.00
2022-08-20T00:32:04.595Z,19.20
2022-08-20T00:34:33.008Z,19.70
2022-08-20T00:37:01.509Z,21.80
2022-08-20T00:39:29.911Z,16.00
2022-08-20T00:41:58.295Z,21.80
2022-08-20T00:44:27.383Z,23.60
2022-08-20T00:46:55.881Z,24.70
2022-08-20T00:49:32.638Z,20.00
2022-08-20T00:52:08.216Z,19.70
2022-08-20T00:54:44.560Z,20.30
2022-08-20T00:57:51.230Z,21.20
2022-08-20T01:00:46.480Z,19.20
2022-08-20T01:03:17.837Z,17.80
2022-08-20T01:05:51.906Z,20.30
2022-08-20T01:08:24.343Z,20.60
2022-08-20T01:11:07.648Z,17.20
2022-08-20T01:13:38.917Z,19.50
2022-08-20T01:16:18.347Z,17.60
2022-08-20T01:18:48.808Z,19.60
2022-08-20T01:21:28.602Z,21.80
2022-08-20T01:24:21.272Z,20.60
2022-08-20T01:26:50.829Z,19.50
2022-08-20T01:29:29.607Z,17.90
2022-08-20T01:32:01.636Z,21.30
2022-08-20T01:34:30.481Z,45.90
2022-08-20T01:36:59.576Z,17.80
2022-08-20T01:39:33.017Z,20.00
2022-08-20T01:42:04.315Z,19.50
2022-08-20T01:44:33.797Z,19.50
2022-08-20T01:47:31.461Z,20.50
2022-08-20T01:50:18.105Z,21.10
2022-08-20T01:52:59.487Z,19.70
2022-08-20T01:55:28.347Z,20.40
2022-08-20T01:57:58.162Z,22.10
2022-08-20T02:00:26.786Z,20.90
2022-08-20T02:02:55.265Z,20.20
2022-08-20T02:05:24.786Z,22.40
2022-08-20T02:07:59.032Z,22.70
2022-08-20T02:10:28.252Z,21.30
2022-08-20T02:13:01.916Z,24.10
2022-08-20T02:15:34.430Z,24.00
2022-08-20T02:18:08.971Z,21.30
2022-08-20T02:20:38.171Z,25.60
2022-08-20T02:23:08.173Z,23.90
2022-08-20T02:25:40.447Z,23.90
2022-08-20T02:28:12.286Z,22.00
2022-08-20T02:30:44.815Z,20.60
2022-08-20T02:33:16.300Z,22.10
2022-08-20T02:35:48.167Z,19.30
2022-08-20T02:38:17.189Z,23.60
2022-08-20T02:40:46.972Z,24.90
2022-08-20T02:43:18.128Z,22.40
2022-08-20T02:45:46.647Z,20.50
2022-08-20T02:48:23.628Z,22.40
2022-08-20T02:50:56.897Z,21.40
2022-08-20T02:53:26.428Z,26.60
2022-08-20T02:55:56.217Z,23.10
2022-08-20T02:58:24.861Z,22.90
2022-08-20T03:00:53.998Z,19.80
2022-08-20T03:03:24.571Z,21.80
2022-08-20T03:05:55.876Z,26.50
2022-08-20T03:08:25.825Z,24.70
2022-08-20T03:10:54.884Z,25.60
2022-08-20T03:13:24.803Z,22.60
2022-08-20T03:15:59.034Z,21.00
2022-08-20T03:18:32.326Z,20.90
2022-08-20T03:21:01.363Z,24.00
2022-08-20T03:23:29.840Z,24.50
2022-08-20T03:25:58.795Z,22.70
2022-08-20T03:28:28.311Z,26.60
2022-08-20T03:30:58.150Z,19.60
2022-08-20T03:33:28.087Z,21.50
2022-08-20T03:35:56.574Z,23.20
2022-08-20T03:38:32.237Z,24.20
2022-08-20T03:41:03.478Z,23.40
2022-08-20T03:43:32.729Z,25.00
2022-08-20T03:46:02.473Z,22.90
2022-08-20T03:48:31.025Z,22.60
2022-08-20T03:51:01.149Z,21.40
2022-08-20T03:53:33.023Z,20.40
2022-08-20T03:56:06.084Z,22.10
2022-08-20T03:58:36.337Z,25.70
2022-08-20T04:01:07.308Z,20.30
2022-08-20T04:03:37.508Z,21.30
2022-08-20T04:06:06.156Z,20.60
2022-08-20T04:08:35.148Z,21.10
2022-08-20T04:11:03.686Z,22.60
2022-08-20T04:13:32.281Z,23.30
2022-08-20T04:16:13.358Z,20.50
2022-08-20T04:19:01.634Z,22.60
2022-08-20T04:21:33.312Z,22.00
2022-08-20T04:24:04.708Z,23.00
2022-08-20T04:26:35.597Z,22.50
2022-08-20T04:29:04.755Z,24.90
2022-08-20T04:31:34.089Z,24.50
2022-08-20T04:34:04.647Z,21.30
2022-08-20T04:36:33.135Z,24.20
2022-08-20T04:39:01.696Z,20.60
2022-08-20T04:41:30.133Z,25.70
2022-08-20T04:43:58.629Z,21.50
2022-08-20T04:46:29.132Z,22.00
2022-08-20T04:48:58.147Z,20.70
2022-08-20T04:51:27.189Z,20.80
2022-08-20T04:53:57.494Z,19.80
2022-08-20T04:56:29.488Z,21.30
2022-08-20T04:59:01.012Z,23.00
2022-08-20T05:01:29.592Z,23.00
2022-08-20T05:03:58.707Z,23.00
2022-08-20T05:06:31.478Z,19.70
2022-08-20T05:09:01.071Z,22.40
2022-08-20T05:11:36.099Z,17.90
2022-08-20T05:14:09.381Z,21.80
2022-08-20T05:16:39.605Z,21.40
2022-08-20T05:19:11.618Z,25.10
2022-08-20T05:21:40.648Z,24.80
2022-08-20T05:24:10.665Z,20.90
2022-08-20T05:26:39.280Z,23.70
2022-08-20T05:29:07.749Z,25.80
2022-08-20T05:31:36.284Z,27.00
2022-08-20T05:34:10.421Z,29.70
2022-08-20T05:36:41.827Z,26.80
2022-08-20T05:39:11.231Z,24.60
2022-08-20T05:41:40.456Z,25.00
2022-08-20T05:44:13.515Z,20.00
2022-08-20T05:46:45.067Z,26.20
2022-08-20T05:49:16.795Z,25.10
2022-08-20T05:51:45.312Z,28.20
2022-08-20T05:54:14.471Z,24.50
2022-08-20T05:56:43.324Z,20.00
2022-08-20T05:59:14.352Z,26.60
2022-08-20T06:01:43.420Z,23.10
2022-08-20T06:04:28.768Z,20.80
2022-08-20T06:07:02.477Z,20.50
2022-08-20T06:09:32.894Z,27.30
2022-08-20T06:12:06.278Z,19.80
2022-08-20T06:14:34.998Z,18.00
2022-08-20T06:17:13.517Z,21.80
2022-08-20T06:19:44.510Z,22.60
2022-08-20T06:22:18.717Z,20.40
2022-08-20T06:24:53.649Z,19.60
2022-08-20T06:27:22.660Z,19.20
2022-08-20T06:29:51.650Z,18.90
2022-08-20T06:32:31.802Z,20.70
2022-08-20T06:35:03.658Z,23.90
2022-08-20T06:37:36.654Z,25.60
2022-08-20T06:40:16.508Z,25.10
2022-08-20T06:42:48.468Z,22.10
2022-08-20T06:45:21.140Z,21.80
2022-08-20T06:47:49.668Z,20.90
2022-08-20T06:50:22.585Z,21.40
2022-08-20T06:52:52.898Z,21.50
2022-08-20T06:55:22.477Z,21.50
2022-08-20T06:58:02.458Z,22.50
2022-08-20T07:00:33.552Z,19.30
2022-08-20T07:03:02.852Z,22.00
2022-08-20T07:05:34.669Z,25.50
2022-08-20T07:08:04.484Z,23.90
2022-08-20T07:10:32.877Z,23.80
2022-08-20T07:13:01.416Z,19.60
2022-08-20T07:15:30.740Z,23.50
2022-08-20T07:18:02.019Z,18.80
2022-08-20T07:20:32.110Z,21.10
2022-08-20T07:23:01.333Z,22.50
2022-08-20T07:25:31.969Z,22.00
2022-08-20T07:28:05.566Z,16.30
2022-08-20T07:30:56.033Z,23.00
2022-08-20T07:33:28.752Z,19.00
2022-08-20T07:36:00.139Z,20.60
2022-08-20T07:38:30.831Z,16.40
2022-08-20T07:41:07.513Z,18.30
2022-08-20T07:43:36.637Z,20.70
2022-08-20T07:46:08.587Z,17.80
2022-08-20T07:48:40.187Z,16.80
2022-08-20T07:51:11.235Z,14.80
2022-08-20T07:53:41.207Z,22.70
2022-08-20T07:56:12.955Z,19.20
2022-08-20T07:58:50.454Z,17.50
2022-08-20T08:01:22.366Z,15.40
2022-08-20T08:03:50.950Z,21.60
2022-08-20T08:06:29.330Z,17.10
2022-08-20T08:09:04.648Z,27.10
2022-08-20T08:11:38.025Z,17.40
2022-08-20T08:14:10.121Z,50.90
2022-08-20T08:16:39.372Z,16.90
2022-08-20T08:19:12.208Z,24.70
2022-08-20T08:21:41.645Z,19.30
2022-08-20T08:24:14.368Z,19.80
2022-08-20T08:26:45.183Z,27.10
2022-08-20T08:29:13.690Z,48.70
2022-08-20T08:31:42.476Z,15.10
2022-08-20T08:34:11.863Z,21.50
2022-08-20T08:36:40.686Z,20.60
2022-08-20T08:39:09.119Z,16.70
2022-08-20T08:41:48.230Z,21.20
2022-08-20T08:44:23.618Z,22.60
2022-08-20T08:47:00.801Z,14.20
2022-08-20T08:49:38.069Z,22.70
2022-08-20T08:52:19.941Z,21.50
2022-08-20T08:54:53.379Z,15.90
2022-08-20T08:57:21.881Z,18.10
2022-08-20T09:00:03.924Z,15.20
2022-08-20T09:02:38.999Z,20.00
2022-08-20T09:05:21.286Z,21.80
2022-08-20T09:07:53.139Z,23.50
2022-08-20T09:10:23.559Z,28.50
2022-08-20T09:12:52.557Z,14.50
2022-08-20T09:15:21.556Z,15.40
2022-08-20T09:17:51.038Z,16.90
2022-08-20T09:20:19.657Z,19.80
2022-08-20T09:22:50.284Z,16.70
2022-08-20T09:25:21.143Z,16.50
2022-08-20T09:27:49.590Z,16.50
2022-08-20T09:30:19.565Z,24.40
2022-08-20T09:32:48.812Z,24.50
2022-08-20T09:35:18.205Z,19.40
2022-08-20T09:37:47.167Z,15.30
2022-08-20T09:40:21.066Z,21.40
2022-08-20T09:42:51.091Z,15.80
2022-08-20T09:45:19.882Z,19.40
2022-08-20T09:47:54.854Z,15.80
2022-08-20T09:50:27.828Z,22.60
2022-08-20T09:52:59.562Z,15.50
2022-08-20T09:55:38.464Z,15.00
2022-08-20T09:58:35.337Z,15.00
2022-08-20T10:01:13.727Z,18.80
2022-08-20T10:03:44.736Z,12.90
2022-08-20T10:06:14.943Z,17.50
2022-08-20T10:08:44.143Z,16.40
2022-08-20T10:11:12.660Z,16.00
2022-08-20T10:13:41.343Z,16.00
2022-08-20T10:16:09.777Z,18.00
2022-08-20T10:18:38.414Z,14.80
2022-08-20T10:21:13.218Z,16.60
2022-08-20T10:23:42.157Z,14.30
2022-08-20T10:26:12.608Z,15.70
2022-08-20T10:28:41.163Z,20.70
2022-08-20T10:31:12.398Z,13.60
2022-08-20T10:33:41.741Z,14.90
2022-08-20T10:36:13.364Z,18.20
2022-08-20T10:38:43.237Z,23.90
2022-08-20T10:41:11.930Z,14.30
2022-08-20T10:43:40.500Z,15.70
2022-08-20T10:46:09.332Z,18.00
2022-08-20T10:48:38.488Z,14.50
2022-08-20T10:51:07.034Z,11.70
2022-08-20T10:53:36.224Z,15.40
2022-08-20T10:56:04.769Z,13.10
2022-08-20T10:58:39.328Z,10.60
2022-08-20T11:01:09.040Z,13.80
2022-08-20T11:03:37.523Z,18.00
2022-08-20T11:06:06.239Z,11.20
2022-08-20T11:08:36.055Z,13.80
2022-08-20T11:11:06.168Z,20.80
2022-08-20T11:13:35.782Z,16.10
2022-08-20T11:16:05.168Z,16.60
2022-08-20T11:18:33.724Z,12.30
2022-08-20T11:21:02.329Z,14.50
2022-08-20T11:23:30.752Z,14.30
2022-08-20T11:25:59.552Z,14.50
2022-08-20T11:28:31.877Z,10.90
2022-08-20T11:31:01.976Z,8.80
2022-08-20T11:33:31.048Z,11.70
2022-08-20T11:35:59.408Z,12.10
2022-08-20T11:38:27.804Z,11.60
2022-08-20T11:40:56.434Z,12.60
2022-08-20T11:43:24.889Z,12.90
2022-08-20T11:45:56.429Z,10.10
2022-08-20T11:48:24.944Z,12.50
2022-08-20T11:50:53.504Z,20.40
2022-08-20T11:53:22.363Z,23.00
2022-08-20T11:55:51.139Z,13.00
2022-08-20T11:58:19.600Z,10.80
2022-08-20T12:00:48.220Z,11.90
2022-08-20T12:03:16.865Z,13.30
2022-08-20T12:05:47.138Z,16.00
2022-08-20T12:08:25.261Z,12.30
2022-08-20T12:11:00.457Z,7.30
2022-08-20T12:13:48.373Z,7.90
2022-08-20T12:16:19.432Z,14.00
2022-08-20T12:18:48.825Z,11.60
2022-08-20T12:21:17.828Z,8.20
2022-08-20T12:23:46.326Z,13.20
2022-08-20T12:26:16.869Z,9.80
2022-08-20T12:28:45.415Z,9.50
2022-08-20T12:31:13.874Z,10.30
2022-08-20T12:33:42.349Z,12.10
2022-08-20T12:36:11.298Z,11.10
2022-08-20T12:38:39.724Z,17.50
2022-08-20T12:41:08.538Z,9.10
2022-08-20T12:43:37.092Z,7.80
2022-08-20T12:46:05.636Z,9.80
2022-08-20T12:48:34.041Z,11.50
2022-08-20T12:51:02.530Z,11.50
2022-08-20T12:53:30.949Z,10.80
2022-08-20T12:56:00.070Z,13.60
2022-08-20T12:58:28.585Z,11.10
2022-08-20T13:00:56.969Z,9.90
2022-08-20T13:03:25.387Z,8.50
2022-08-20T13:05:55.327Z,15.10
2022-08-20T13:08:23.889Z,14.00
2022-08-20T13:10:52.319Z,16.10
2022-08-20T13:13:21.246Z,14.10
2022-08-20T13:15:51.315Z,17.10
2022-08-20T13:18:20.667Z,11.30
2022-08-20T13:20:50.022Z,9.70
2022-08-20T13:23:18.474Z,11.20
2022-08-20T13:25:46.876Z,8.70
2022-08-20T13:28:15.419Z,11.80
2022-08-20T13:30:43.884Z,18.00
2022-08-20T13:33:12.299Z,17.60
2022-08-20T13:35:41.021Z,12.00
2022-08-20T13:38:09.412Z,18.00
2022-08-20T13:40:37.880Z,12.00
2022-08-20T13:43:07.550Z,14.40
2022-08-20T13:45:41.305Z,13.80
2022-08-20T13:48:14.984Z,10.80
2022-08-20T13:50:47.366Z,12.90
2022-08-20T13:53:16.709Z,22.70
2022-08-20T13:55:46.849Z,12.00
2022-08-20T13:58:15.421Z,13.10
2022-08-20T14:00:48.444Z,6.80
2022-08-20T14:03:20.000Z,15.40
2022-08-20T14:05:54.416Z,21.10
2022-08-20T14:08:24.501Z,20.20
2022-08-20T14:10:53.027Z,21.80
2022-08-20T14:13:25.120Z,16.30
2022-08-20T14:15:54.517Z,14.90
2022-08-20T14:18:23.345Z,21.00
2022-08-20T14:20:51.819Z,13.90
2022-08-20T14:23:20.400Z,20.20
2022-08-20T14:25:50.345Z,31.50
2022-08-20T14:28:22.433Z,13.90
2022-08-20T14:30:53.025Z,11.20
2022-08-20T14:33:24.342Z,13.60
2022-08-20T14:35:53.412Z,17.00
2022-08-20T14:38:22.541Z,12.20
2022-08-20T14:40:54.284Z,7.80
2022-08-20T14:43:22.991Z,9.50
2022-08-20T14:45:53.752Z,13.80
2022-08-20T14:48:25.636Z,16.50
2022-08-20T14:50:57.275Z,9.20
2022-08-20T14:53:26.264Z,11.60
2022-08-20T14:55:54.849Z,6.60
2022-08-20T14:58:23.352Z,12.30
2022-08-20T15:00:53.612Z,10.80
2022-08-20T15:03:24.182Z,11.40
2022-08-20T15:05:52.586Z,9.70
2022-08-20T15:08:23.216Z,9.20
2022-08-20T15:10:58.431Z,12.70
2022-08-20T15:13:26.926Z,11.30
2022-08-20T15:15:55.617Z,10.20
2022-08-20T15:18:25.425Z,8.20
2022-08-20T15:20:53.969Z,10.10
2022-08-20T15:23:23.168Z,7.50
2022-08-20T15:25:51.693Z,13.40
2022-08-20T15:28:20.238Z,7.10
2022-08-20T15:30:48.683Z,12.60
2022-08-20T15:33:17.159Z,10.20
2022-08-20T15:35:45.729Z,10.70
2022-08-20T15:38:14.196Z,10.40
2022-08-20T15:40:42.687Z,9.10
2022-08-20T15:43:11.235Z,8.40
2022-08-20T15:45:39.671Z,13.40
2022-08-20T15:48:18.836Z,11.80
2022-08-20T15:51:25.984Z,9.60
2022-08-20T15:54:18.510Z,10.30
2022-08-20T15:57:05.551Z,11.40
2022-08-20T15:59:33.940Z,7.60
2022-08-20T16:02:26.002Z,9.60
2022-08-20T16:05:19.165Z,10.80
2022-08-20T16:08:15.600Z,10.80
2022-08-20T16:10:43.953Z,11.30
2022-08-20T16:13:47.808Z,14.10
2022-08-20T16:16:33.305Z,10.40
2022-08-20T16:19:02.376Z,9.40
2022-08-20T16:21:37.681Z,10.40
2022-08-20T16:24:13.794Z,10.20
2022-08-20T16:26:48.527Z,12.90
2022-08-20T16:29:24.496Z,12.20
2022-08-20T16:32:02.204Z,8.70
2022-08-20T16:34:40.675Z,12.60
2022-08-20T16:37:38.362Z,10.60
2022-08-20T16:40:10.013Z,7.80
2022-08-20T16:42:44.492Z,11.60
2022-08-20T16:45:20.595Z,12.80
2022-08-20T16:47:51.179Z,8.90
2022-08-20T16:50:26.975Z,10.60
2022-08-20T16:52:55.675Z,13.00
2022-08-20T16:55:25.433Z,11.60
2022-08-20T16:57:54.889Z,11.30
2022-08-20T17:00:44.844Z,14.80
2022-08-20T17:03:31.524Z,10.40
2022-08-20T17:06:30.819Z,9.50
2022-08-20T17:09:02.529Z,11.80
2022-08-20T17:12:14.090Z,10.00
2022-08-20T17:14:52.861Z,9.90
2022-08-20T17:17:28.184Z,13.00
2022-08-20T17:20:20.020Z,11.50
2022-08-20T17:22:53.894Z,13.50
2022-08-20T17:25:38.356Z,10.30
2022-08-20T17:28:19.795Z,10.80
2022-08-20T17:30:49.970Z,12.30
2022-08-20T17:33:36.664Z,12.50
2022-08-20T17:36:17.290Z,13.10
2022-08-20T17:39:00.901Z,13.60
2022-08-20T17:41:29.327Z,16.90
2022-08-20T17:44:06.942Z,12.60
2022-08-20T17:46:45.771Z,13.40
2022-08-20T17:49:34.828Z,12.30
2022-08-20T17:52:11.652Z,12.80
2022-08-20T17:54:44.601Z,10.30
2022-08-20T17:57:15.531Z,11.60
2022-08-20T18:00:00.896Z,14.50
2022-08-20T18:02:34.919Z,12.50
2022-08-20T18:05:10.307Z,9.90
2022-08-20T18:07:42.299Z,12.90
2022-08-20T18:10:18.568Z,10.80
2022-08-20T18:13:11.605Z,13.70
2022-08-20T18:15:58.419Z,14.30
2022-08-20T18:18:56.859Z,8.20
2022-08-20T18:21:44.765Z,10.20
2022-08-20T18:24:20.853Z,13.30
2022-08-20T18:26:54.253Z,11.10
2022-08-20T18:29:34.192Z,14.60
2022-08-20T18:32:07.486Z,10.90
2022-08-20T18:34:40.439Z,14.20
2022-08-20T18:37:14.709Z,12.80
2022-08-20T18:39:49.288Z,15.50
2022-08-20T18:44:48.417Z,15.70
2022-08-20T18:47:25.635Z,12.50
2022-08-20T18:50:16.492Z,20.10
2022-08-20T18:53:08.509Z,18.60
2022-08-20T18:55:43.724Z,15.00
2022-08-20T18:58:31.104Z,14.10
2022-08-20T19:01:05.125Z,17.60
2022-08-20T19:03:36.359Z,16.20
2022-08-20T19:06:13.999Z,15.40
2022-08-20T19:08:52.734Z,17.60
2022-08-20T19:11:23.904Z,12.30
2022-08-20T19:14:15.453Z,14.40
2022-08-20T19:16:58.451Z,15.70
2022-08-20T19:19:32.234Z,14.80
2022-08-20T19:22:28.395Z,15.80
2022-08-20T19:25:00.046Z,14.00
2022-08-20T19:27:29.730Z,20.40
2022-08-20T19:30:02.708Z,16.70
2022-08-20T19:32:45.161Z,18.50
2022-08-20T19:35:17.872Z,14.30
2022-08-20T19:37:51.479Z,17.30
2022-08-20T19:40:28.730Z,20.40
2022-08-20T19:43:03.228Z,14.60
2022-08-20T19:45:41.117Z,18.90
2022-08-20T19:48:28.499Z,18.30
2022-08-20T19:51:07.038Z,17.90
2022-08-20T19:53:43.159Z,13.80
2022-08-20T19:56:21.806Z,15.10
2022-08-20T19:59:05.534Z,14.80
2022-08-20T20:01:34.921Z,17.70
2022-08-20T20:04:16.765Z,18.00
2022-08-20T20:06:49.262Z,17.80
2022-08-20T20:09:29.891Z,19.40
2022-08-20T20:12:04.092Z,17.90
2022-08-20T20:15:23.744Z,16.00
2022-08-20T20:17:54.009Z,15.50
2022-08-20T20:20:35.234Z,15.80
2022-08-20T20:23:20.678Z,19.90
2022-08-20T20:25:58.182Z,18.00
2022-08-20T20:28:41.939Z,18.50
2022-08-20T20:31:14.772Z,17.50
2022-08-20T20:33:44.454Z,20.40
2022-08-20T20:36:17.095Z,16.90
2022-08-20T20:38:58.144Z,16.70
2022-08-20T20:41:29.129Z,15.70
2022-08-20T20:44:20.605Z,14.20
2022-08-20T20:47:00.565Z,16.30
2022-08-20T20:49:35.966Z,19.50
2022-08-20T20:52:15.052Z,20.90
2022-08-20T20:54:46.288Z,18.00
2022-08-20T20:57:34.246Z,18.70
2022-08-20T21:00:14.561Z,19.90
2022-08-20T21:02:47.633Z,18.00
2022-08-20T21:05:18.041Z,18.80
2022-08-20T21:07:51.477Z,16.10
2022-08-20T21:10:23.357Z,17.80
2022-08-20T21:12:53.428Z,19.20
2022-08-20T21:15:24.458Z,17.10
2022-08-20T21:17:54.972Z,22.20
2022-08-20T21:20:23.405Z,17.10
2022-08-20T21:22:52.047Z,18.50
2022-08-20T21:25:20.741Z,16.40
2022-08-20T21:27:50.945Z,16.60
2022-08-20T21:30:21.422Z,19.90
2022-08-20T21:32:50.802Z,19.80
2022-08-20T21:35:21.186Z,18.40
2022-08-20T21:37:50.929Z,16.40
2022-08-20T21:40:21.695Z,16.80
2022-08-20T21:42:51.338Z,19.90
2022-08-20T21:45:20.279Z,18.30
2022-08-20T21:47:48.995Z,18.30
2022-08-20T21:50:20.380Z,16.90
2022-08-20T21:52:55.483Z,20.00
2022-08-20T21:55:39.789Z,17.30
2022-08-20T21:58:09.027Z,16.60
2022-08-20T22:00:53.765Z,16.90
2022-08-20T22:05:53.133Z,18.80
2022-08-20T22:08:26.062Z,17.20
2022-08-20T22:10:59.503Z,20.80
2022-08-20T22:13:31.888Z,17.80
2022-08-20T22:16:07.283Z,17.60
2022-08-20T22:18:36.533Z,20.50
2022-08-20T22:21:07.872Z,17.30
2022-08-20T22:23:40.131Z,18.00
2022-08-20T22:26:09.103Z,18.20
2022-08-20T22:28:38.790Z,21.00
2022-08-20T22:31:07.881Z,20.50
2022-08-20T22:33:37.087Z,17.30
2022-08-20T22:36:07.180Z,20.70
2022-08-20T22:38:35.557Z,20.00
2022-08-20T22:41:09.430Z,24.20
2022-08-20T22:43:43.412Z,19.90
2022-08-20T22:46:28.831Z,16.50
2022-08-20T22:48:57.847Z,17.90
2022-08-20T22:51:34.624Z,19.70
2022-08-20T22:54:05.952Z,24.60
2022-08-20T22:56:34.484Z,25.50
2022-08-20T22:59:03.720Z,21.90
2022-08-20T23:01:32.450Z,19.10
2022-08-20T23:04:12.668Z,18.50
2022-08-20T23:06:42.224Z,22.40
2022-08-20T23:09:12.810Z,23.60
2022-08-20T23:11:41.691Z,19.20
2022-08-20T23:14:10.295Z,19.70
2022-08-20T23:16:44.845Z,21.00
2022-08-20T23:19:23.005Z,20.80
2022-08-20T23:21:51.916Z,20.00
2022-08-20T23:24:21.131Z,20.70
2022-08-20T23:26:53.050Z,18.50
2022-08-20T23:29:25.834Z,20.00
2022-08-20T23:31:56.133Z,21.50
2022-08-20T23:34:26.624Z,22.20
2022-08-20T23:36:56.773Z,21.20
2022-08-20T23:39:26.408Z,22.70
2022-08-20T23:41:55.428Z,24.60
2022-08-20T23:44:27.579Z,23.00
2022-08-20T23:46:59.638Z,17.80
2022-08-20T23:49:29.647Z,21.90
2022-08-20T23:52:00.818Z,22.50
2022-08-20T23:54:33.103Z,20.30
2022-08-20T23:57:08.090Z,25.30
2022-08-20T23:59:37.140Z,22.60
